Time;durP1;ratioP1;P1;durP2;ratioP2;P2;SDS_P1;SDS_P2;PMS_P1;PMS_P2;Temp;Humidity;BMP_temperature;BMP_pressure;BME280_temperature;BME280_humidity;BME280_pressure;Samples;Min_cycle;Max_cycle;Signal;HPM_P1;HPM_P2
2023/01/13 00:00:23;;;;;;;12.13;2.47;;;;;;;10.18;100.00;100341.09;5305665;28;20489;-77
2023/01/13 00:02:55;;;;;;;14.98;2.40;;;;;;;10.16;100.00;100344.81;5307879;28;20057;-76
2023/01/13 00:05:27;;;;;;;14.02;2.88;;;;;;;10.17;100.00;100351.69;5309970;28;20388;-76
2023/01/13 00:07:58;;;;;;;16.15;3.78;;;;;;;10.13;100.00;100351.16;5312975;28;20028;-76
2023/01/13 00:10:29;;;;;;;13.07;2.67;;;;;;;10.14;100.00;100351.97;5308399;28;20028;-79
2023/01/13 00:13:03;;;;;;;11.20;3.08;;;;;;;10.15;100.00;100351.00;5303570;28;20035;-76
2023/01/13 00:15:34;;;;;;;11.15;3.05;;;;;;;10.10;100.00;100355.84;5289282;28;20047;-76
2023/01/13 00:18:06;;;;;;;17.30;3.38;;;;;;;10.16;100.00;100345.66;5290577;28;20024;-79
2023/01/13 00:20:37;;;;;;;13.05;2.83;;;;;;;10.11;100.00;100344.41;5290952;28;20028;-77
2023/01/13 00:23:08;;;;;;;14.95;3.28;;;;;;;10.07;100.00;100333.38;5305890;28;20137;-77
2023/01/13 00:25:40;;;;;;;16.13;3.55;;;;;;;10.07;100.00;100329.94;5301057;28;20039;-76
2023/01/13 00:28:11;;;;;;;15.50;3.40;;;;;;;10.06;100.00;100317.81;5308079;28;20077;-76
2023/01/13 00:30:42;;;;;;;15.57;3.65;;;;;;;10.06;100.00;100323.06;5288275;28;20031;-79
2023/01/13 00:33:13;;;;;;;17.30;4.10;;;;;;;10.01;100.00;100327.91;5305646;28;20028;-76
2023/01/13 00:35:54;;;;;;;17.33;3.97;;;;;;;10.06;100.00;100317.81;5309389;28;20027;-77
2023/01/13 00:38:26;;;;;;;15.85;3.95;;;;;;;9.96;100.00;100320.44;5309452;28;20030;-80
2023/01/13 00:41:03;;;;;;;16.80;3.88;;;;;;;9.93;100.00;100307.66;5299248;28;20031;-76
2023/01/13 00:43:36;;;;;;;16.83;3.90;;;;;;;9.85;100.00;100308.34;5294356;28;20023;-77
2023/01/13 00:46:10;;;;;;;13.82;3.20;;;;;;;9.92;100.00;100304.19;5306029;28;20031;-77
2023/01/13 00:48:42;;;;;;;17.60;3.83;;;;;;;9.74;100.00;100296.22;5305288;28;20508;-77
2023/01/13 00:51:17;;;;;;;15.50;3.28;;;;;;;9.85;100.00;100304.88;5305588;28;20036;-77
2023/01/13 00:53:50;;;;;;;15.57;3.47;;;;;;;9.75;100.00;100291.81;5281481;28;20058;-78
2023/01/13 00:56:23;;;;;;;11.40;3.17;;;;;;;9.81;100.00;100296.50;5290710;28;20028;-77
2023/01/13 00:58:57;;;;;;;17.15;3.97;;;;;;;9.82;100.00;100306.00;5309741;28;20031;-77
2023/01/13 01:01:28;;;;;;;19.20;3.75;;;;;;;9.74;100.00;100317.16;5308331;28;20020;-76
2023/01/13 01:04:00;;;;;;;13.02;3.28;;;;;;;9.80;100.00;100302.69;5306635;28;20027;-77
2023/01/13 01:06:31;;;;;;;15.73;3.47;;;;;;;9.83;100.00;100307.66;5302992;28;20038;-77
2023/01/13 01:09:03;;;;;;;17.23;3.70;;;;;;;9.81;100.00;100314.81;5308608;28;20058;-77
2023/01/13 01:11:35;;;;;;;13.20;3.47;;;;;;;9.66;100.00;100306.56;5307860;28;20036;-78
2023/01/13 01:14:06;;;;;;;18.48;4.15;;;;;;;9.78;100.00;100330.78;5290108;28;20022;-77
2023/01/13 01:16:39;;;;;;;15.43;3.20;;;;;;;9.81;100.00;100313.97;5305419;28;20048;-76
2023/01/13 01:19:11;;;;;;;17.60;3.20;;;;;;;9.86;100.00;100323.06;5302126;28;20035;-78
2023/01/13 01:21:42;;;;;;;16.65;3.45;;;;;;;9.81;100.00;100314.81;5304947;28;20028;-77
2023/01/13 01:24:15;;;;;;;19.52;3.47;;;;;;;9.87;100.00;100313.44;5293433;28;20027;-77
2023/01/13 01:26:46;;;;;;;19.15;3.30;;;;;;;9.85;100.00;100318.81;5284118;28;20082;-76
2023/01/13 01:29:18;;;;;;;19.77;3.22;;;;;;;9.89;100.00;100311.50;5302945;28;20063;-77
2023/01/13 01:31:49;;;;;;;16.73;3.88;;;;;;;9.82;100.00;100300.78;5282208;28;20456;-77
2023/01/13 01:34:20;;;;;;;20.90;4.25;;;;;;;9.81;100.00;100317.44;5302607;28;20493;-77
2023/01/13 01:36:52;;;;;;;15.77;3.85;;;;;;;9.80;100.00;100313.16;5303739;28;20075;-76
2023/01/13 01:39:23;;;;;;;22.80;4.70;;;;;;;9.83;100.00;100312.88;5288277;28;20404;-77
2023/01/13 01:44:55;;;;;;;21.00;4.55;;;;;;;9.79;100.00;100329.81;5310644;28;20122;-77
2023/01/13 01:47:29;;;;;;;21.63;4.93;;;;;;;9.66;100.00;100324.03;5305269;28;20032;-77
2023/01/13 01:50:02;;;;;;;17.67;4.85;;;;;;;9.62;100.00;100312.19;5308380;28;20016;-77
2023/01/13 01:52:38;;;;;;;22.48;4.30;;;;;;;9.64;100.00;100321.56;5304416;28;20115;-76
2023/01/13 01:55:18;;;;;;;24.25;4.93;;;;;;;9.72;100.00;100310.41;5310444;28;20030;-77
2023/01/13 01:58:03;;;;;;;26.98;4.60;;;;;;;9.81;100.00;100317.44;5306516;28;20063;-77
2023/01/13 02:00:35;;;;;;;25.38;4.30;;;;;;;9.58;100.00;100329.94;5307963;28;20114;-77
2023/01/13 02:03:08;;;;;;;28.20;4.93;;;;;;;9.49;100.00;100308.03;5310807;28;20374;-75
2023/01/13 02:05:40;;;;;;;;;;;;;;;9.93;100.00;100312.88;5307203;28;20039;-77
2023/01/13 02:08:12;;;;;;;24.73;4.57;;;;;;;9.47;100.00;100315.22;5307715;28;19911;-77
2023/01/13 02:10:47;;;;;;;21.10;4.15;;;;;;;9.52;100.00;100321.81;5309731;28;20027;-77
2023/01/13 02:13:21;;;;;;;27.45;5.68;;;;;;;9.45;100.00;100311.91;5307589;28;20031;-77
2023/01/13 02:16:15;;;;;;;24.98;5.28;;;;;;;9.56;100.00;100308.34;5306354;28;20051;-77
2023/01/13 02:19:25;;;;;;;20.98;5.53;;;;;;;9.45;100.00;100314.50;5309567;28;20027;-77
2023/01/13 02:22:18;;;;;;;28.13;5.78;;;;;;;9.67;100.00;100320.47;5262060;28;20107;-77
2023/01/13 02:25:15;;;;;;;17.50;5.17;;;;;;;9.68;100.00;100324.72;5307210;28;20756;-77
2023/01/13 02:28:31;;;;;;;31.00;5.85;;;;;;;9.58;100.00;100332.53;5309342;28;20296;-76
2023/01/13 02:34:14;;;;;;;27.73;5.70;;;;;;;9.52;100.00;100324.44;5311349;28;20114;-77
2023/01/13 02:37:06;;;;;;;17.05;4.22;;;;;;;9.58;100.00;100327.31;5304203;28;20039;-77
2023/01/13 02:39:44;;;;;;;21.58;4.95;;;;;;;9.42;100.00;100320.00;5304609;28;20036;-77
2023/01/13 02:45:54;;;;;;;19.58;4.22;;;;;;;9.53;100.00;100303.38;5278178;28;20044;-77
2023/01/13 02:48:28;;;;;;;20.48;4.82;;;;;;;9.26;100.00;100299.63;5309151;28;20057;-75
2023/01/13 02:51:06;;;;;;;25.67;5.10;;;;;;;9.47;100.00;100309.13;5307584;28;20051;-75
2023/01/13 02:53:52;;;;;;;16.20;3.80;;;;;;;9.57;100.00;100299.53;5290632;28;20027;-75
2023/01/13 02:56:25;;;;;;;20.40;4.22;;;;;;;9.47;100.00;100298.69;5311478;28;20027;-79
2023/01/13 02:58:58;;;;;;;;;;;;;;;9.96;100.00;100292.50;5294454;28;20046;-79
2023/01/13 03:01:29;;;;;;;17.65;4.30;;;;;;;9.42;100.00;100286.03;5306606;28;20329;-76
2023/01/13 03:04:14;;;;;;;22.33;4.22;;;;;;;9.54;100.00;100276.25;5309765;28;20103;-77
2023/01/13 03:07:21;;;;;;;22.10;4.38;;;;;;;9.79;100.00;100280.13;5289235;28;20023;-75
2023/01/13 03:10:18;;;;;;;22.95;5.00;;;;;;;9.71;100.00;100274.75;5306835;28;20054;-76
2023/01/13 03:13:09;;;;;;;21.85;4.28;;;;;;;9.57;100.00;100289.06;5307482;28;20017;-76
2023/01/13 03:16:17;;;;;;;22.90;3.90;;;;;;;9.82;100.00;100292.09;5311458;28;20072;-76
2023/01/13 03:19:10;;;;;;;17.83;3.42;;;;;;;9.65;100.00;100280.53;5301050;28;20024;-77
2023/01/13 03:21:59;;;;;;;15.73;3.63;;;;;;;9.58;100.00;100276.81;5305887;28;20052;-77
2023/01/13 03:24:39;;;;;;;21.40;5.47;;;;;;;9.63;100.00;100275.44;5300868;28;20089;-76
2023/01/13 03:27:24;;;;;;;15.32;3.50;;;;;;;9.59;100.00;100281.91;5309207;28;20117;-77
2023/01/13 03:30:04;;;;;;;19.50;3.97;;;;;;;9.71;100.00;100287.84;5309630;28;20019;-74
2023/01/13 03:32:41;;;;;;;14.35;4.18;;;;;;;9.60;100.00;100277.50;5301927;28;20040;-76
2023/01/13 03:35:21;;;;;;;17.98;4.28;;;;;;;9.74;100.00;100270.06;5302464;28;20477;-75
2023/01/13 03:37:59;;;;;;;12.30;2.28;;;;;;;9.72;100.00;100279.84;5312547;28;20093;-77
2023/01/13 03:40:39;;;;;;;9.38;2.38;;;;;;;9.74;100.00;100272.69;5304398;28;20023;-76
2023/01/13 03:46:28;;;;;;;8.70;1.83;;;;;;;9.88;100.00;100281.06;5307591;28;20999;-76
2023/01/13 03:49:03;;;;;;;6.88;1.33;;;;;;;9.73;100.00;100268.41;5310090;28;20035;-77
2023/01/13 03:51:37;;;;;;;5.75;1.10;;;;;;;9.76;100.00;100269.91;5304161;28;20027;-77
2023/01/13 03:54:12;;;;;;;4.85;1.27;;;;;;;9.72;100.00;100265.94;5306254;28;20038;-76
2023/01/13 03:56:48;;;;;;;5.63;1.25;;;;;;;9.72;100.00;100269.38;5294098;28;20481;-77
2023/01/13 03:59:25;;;;;;;6.13;1.23;;;;;;;9.73;100.00;100259.72;5287143;28;20031;-77
2023/01/13 04:02:09;;;;;;;4.22;0.85;;;;;;;9.75;100.00;100257.81;5308565;28;20396;-77
2023/01/13 04:04:49;;;;;;;5.15;1.20;;;;;;;9.66;100.00;100271.72;5306343;28;20036;-77
2023/01/13 04:07:31;;;;;;;7.40;1.88;;;;;;;9.68;100.00;100275.03;5288785;28;20023;-77
2023/01/13 04:10:07;;;;;;;6.00;1.23;;;;;;;9.51;100.00;100276.56;5286469;28;20020;-77
2023/01/13 04:13:00;;;;;;;5.45;1.30;;;;;;;9.52;100.00;100287.84;5305115;28;20036;-77
2023/01/13 04:15:52;;;;;;;6.93;1.30;;;;;;;9.66;100.00;100303.94;5303627;28;20527;-76
2023/01/13 04:18:27;;;;;;;6.18;1.73;;;;;;;9.37;100.00;100284.78;5306837;28;20044;-78
2023/01/13 04:21:00;;;;;;;8.45;2.15;;;;;;;9.30;100.00;100281.88;5298335;28;20018;-77
2023/01/13 04:23:32;;;;;;;8.65;1.90;;;;;;;9.30;100.00;100304.59;5304118;28;20031;-76
2023/01/13 04:26:04;;;;;;;8.55;2.30;;;;;;;9.19;100.00;100298.50;5297002;28;20579;-75
2023/01/13 04:28:35;;;;;;;11.90;2.60;;;;;;;9.26;100.00;100306.66;5304567;28;20031;-76
2023/01/13 04:31:06;;;;;;;9.93;2.10;;;;;;;9.25;100.00;100300.59;5288555;28;20056;-76
2023/01/13 04:33:38;;;;;;;12.70;2.50;;;;;;;9.31;100.00;100293.97;5287064;28;20120;-76
2023/01/13 04:36:09;;;;;;;12.15;2.88;;;;;;;9.25;100.00;100303.22;5305808;28;20048;-75
2023/01/13 04:38:40;;;;;;;12.02;2.70;;;;;;;9.36;100.00;100296.22;5289161;28;20059;-75
2023/01/13 04:41:11;;;;;;;14.40;3.33;;;;;;;9.38;100.00;100304.72;5307589;28;20020;-75
2023/01/13 04:43:43;;;;;;;10.63;2.63;;;;;;;9.36;100.00;100299.66;5288017;28;20020;-76
2023/01/13 04:46:14;;;;;;;12.32;2.55;;;;;;;9.37;100.00;100306.53;5307366;28;20535;-77
2023/01/13 04:48:45;;;;;;;14.93;2.92;;;;;;;9.40;100.00;100295.81;5286786;28;20721;-75
2023/01/13 04:51:17;;;;;;;14.55;2.80;;;;;;;9.34;100.00;100304.19;5305319;28;20031;-75
2023/01/13 04:53:50;;;;;;;14.45;2.88;;;;;;;9.37;100.00;100306.53;5306927;28;20119;-75
2023/01/13 04:56:21;;;;;;;11.77;2.45;;;;;;;9.25;100.00;100289.31;5308329;28;20032;-76
2023/01/13 04:58:52;;;;;;;12.13;2.78;;;;;;;9.33;100.00;100291.25;5286346;28;20051;-75
2023/01/13 05:01:23;;;;;;;15.05;3.58;;;;;;;9.32;100.00;100292.19;5306662;28;20024;-79
2023/01/13 05:03:55;;;;;;;11.27;2.72;;;;;;;9.29;100.00;100282.03;5288668;28;20115;-75
2023/01/13 05:06:26;;;;;;;15.77;2.85;;;;;;;9.31;100.00;100282.72;5288607;28;20058;-78
2023/01/13 05:08:57;;;;;;;15.63;3.00;;;;;;;9.25;100.00;100273.63;5290525;28;20019;-75
2023/01/13 05:17:18;;;;;;;12.98;2.70;;;;;;;9.22;100.00;100272.09;5282642;28;20044;-75
2023/01/13 05:19:50;;;;;;;11.48;2.55;;;;;;;9.14;100.00;100281.59;5280888;28;20035;-76
2023/01/13 05:25:20;;;;;;;12.20;2.42;;;;;;;9.13;100.00;100291.22;5281696;28;20465;-79
2023/01/13 05:27:54;;;;;;;11.77;2.50;;;;;;;9.12;100.00;100293.94;5280209;28;20020;-75
2023/01/13 05:30:28;;;;;;;13.35;3.58;;;;;;;9.11;100.00;100300.97;5261156;28;20089;-75
2023/01/13 05:33:00;;;;;;;14.15;2.90;;;;;;;9.08;100.00;100279.50;5279717;28;20059;-76
2023/01/13 05:35:31;;;;;;;11.25;2.95;;;;;;;9.07;100.00;100285.69;5279608;28;20493;-76
2023/01/13 05:38:02;;;;;;;11.40;2.20;;;;;;;8.85;100.00;100300.63;5279787;28;20048;-75
2023/01/13 05:43:25;;;;;;;11.55;2.55;;;;;;;8.95;100.00;100291.03;5280387;28;20048;-75
2023/01/13 05:46:01;;;;;;;11.35;2.58;;;;;;;8.97;100.00;100306.56;5280488;28;20039;-76
2023/01/13 05:48:38;;;;;;;14.02;2.50;;;;;;;8.97;100.00;100314.41;5261422;28;20028;-75
2023/01/13 05:51:11;;;;;;;9.25;2.83;;;;;;;8.97;100.00;100324.84;5261152;28;20043;-75
2023/01/13 05:53:43;;;;;;;9.23;2.60;;;;;;;9.06;100.00;100318.84;5279073;28;20020;-75
2023/01/13 05:56:16;;;;;;;13.13;2.78;;;;;;;9.04;100.00;100317.31;5280940;28;20122;-75
2023/01/13 05:58:47;;;;;;;11.32;2.70;;;;;;;9.09;100.00;100312.50;5261511;28;20028;-75
2023/01/13 06:01:18;;;;;;;12.70;3.10;;;;;;;8.97;100.00;100319.63;5277524;28;20496;-78
2023/01/13 06:03:49;;;;;;;10.63;3.00;;;;;;;9.06;100.00;100323.25;5279582;28;20021;-75
2023/01/13 06:06:21;;;;;;;11.30;2.40;;;;;;;9.06;100.00;100325.88;5279962;28;20035;-74
2023/01/13 06:08:52;;;;;;;11.63;2.95;;;;;;;9.00;100.00;100320.19;5260169;28;20367;-76
2023/01/13 06:11:23;;;;;;;10.18;2.28;;;;;;;9.05;100.00;100325.00;5279427;28;20108;-76
2023/01/13 06:13:55;;;;;;;12.32;2.70;;;;;;;8.89;100.00;100335.97;5259923;28;20021;-75
2023/01/13 06:16:26;;;;;;;16.08;3.53;;;;;;;8.87;100.00;100335.28;5290596;28;20105;-74
2023/01/13 06:18:57;;;;;;;11.25;2.65;;;;;;;8.88;100.00;100347.38;5285325;28;20031;-78
2023/01/13 06:21:28;;;;;;;17.08;2.80;;;;;;;8.82;100.00;100329.59;5301813;28;20023;-75
2023/01/13 06:24:00;;;;;;;11.30;2.97;;;;;;;8.91;100.00;100330.63;5302736;28;20115;-78
2023/01/13 06:26:37;;;;;;;14.05;2.70;;;;;;;9.04;100.00;100354.72;5308541;28;20028;-75
2023/01/13 06:29:08;;;;;;;14.15;2.95;;;;;;;8.96;100.00;100342.31;5306799;28;20035;-74
2023/01/13 06:31:40;;;;;;;15.57;3.58;;;;;;;8.88;100.00;100363.06;5305589;28;20023;-75
2023/01/13 06:34:13;;;;;;;11.73;3.38;;;;;;;8.94;100.00;100362.53;5291134;28;20028;-76
2023/01/13 06:36:51;;;;;;;13.25;2.90;;;;;;;8.98;100.00;100360.50;5307287;28;20473;-75
2023/01/13 06:39:26;;;;;;;11.48;2.50;;;;;;;8.53;100.00;100361.66;5284834;28;20107;-77
2023/01/13 06:44:48;;;;;;;16.10;3.13;;;;;;;8.47;100.00;100356.94;5301125;28;20028;-77
2023/01/13 06:47:21;;;;;;;14.70;3.35;;;;;;;8.51;100.00;100354.88;5282501;28;20031;-74
2023/01/13 06:49:52;;;;;;;17.50;3.10;;;;;;;8.64;100.00;100375.59;5315295;28;20023;-76
2023/01/13 06:52:23;;;;;;;15.23;3.00;;;;;;;8.62;100.00;100367.88;5311600;28;20027;-74
2023/01/13 06:54:56;;;;;;;16.25;3.10;;;;;;;8.66;100.00;100361.44;5305584;28;20019;-75
2023/01/13 06:57:27;;;;;;;13.73;2.72;;;;;;;8.67;100.00;100343.97;5313445;28;20031;-76
2023/01/13 06:59:58;;;;;;;15.20;3.60;;;;;;;8.69;100.00;100355.94;5309586;28;20406;-81
2023/01/13 07:02:30;;;;;;;12.98;2.70;;;;;;;8.72;100.00;100352.25;5285665;28;20035;-74
2023/01/13 07:05:01;;;;;;;13.50;2.97;;;;;;;8.78;100.00;100365.59;5306740;28;20044;-75
2023/01/13 07:07:32;;;;;;;11.68;2.83;;;;;;;8.81;100.00;100359.31;5292142;28;20032;-74
2023/01/13 07:10:04;;;;;;;15.68;3.00;;;;;;;8.77;100.00;100368.34;5308958;28;20107;-75
2023/01/13 07:15:30;;;;;;;12.85;2.55;;;;;;;8.78;100.00;100373.44;5307856;28;20123;-76
2023/01/13 07:18:01;;;;;;;14.10;2.83;;;;;;;8.81;100.00;100380.19;5309758;28;20111;-78
2023/01/13 07:20:33;;;;;;;12.93;2.63;;;;;;;8.79;100.00;100389.97;5282781;28;20016;-76
2023/01/13 07:23:04;;;;;;;14.63;3.40;;;;;;;8.80;100.00;100382.94;5303318;28;20047;-75
2023/01/13 07:25:35;;;;;;;14.75;3.80;;;;;;;8.80;100.00;100391.63;5294013;28;20031;-79
2023/01/13 07:28:06;;;;;;;17.92;3.33;;;;;;;8.83;100.00;100383.53;5303718;28;20491;-75
2023/01/13 07:30:38;;;;;;;15.65;3.53;;;;;;;8.81;100.00;100382.00;5299443;28;20027;-78
2023/01/13 07:33:09;;;;;;;13.52;3.17;;;;;;;8.69;100.00;100373.41;5288292;28;20073;-75
2023/01/13 07:35:41;;;;;;;16.83;3.60;;;;;;;8.74;100.00;100377.28;5307780;28;20425;-75
2023/01/13 07:38:13;;;;;;;17.45;3.28;;;;;;;8.75;100.00;100396.38;5301765;28;20112;-75
2023/01/13 07:40:44;;;;;;;16.55;3.35;;;;;;;8.77;100.00;100382.25;5306937;28;20034;-74
2023/01/13 07:43:31;;;;;;;18.85;3.20;;;;;;;8.70;100.00;100391.53;5302809;28;20050;-74
2023/01/13 07:46:04;;;;;;;12.70;2.97;;;;;;;8.67;100.00;100399.63;5302998;28;20043;-78
2023/01/13 07:48:36;;;;;;;13.95;3.55;;;;;;;8.66;100.00;100384.94;5300333;28;20020;-78
2023/01/13 07:51:09;;;;;;;12.32;2.55;;;;;;;8.74;100.00;100403.38;5308882;28;20058;-75
2023/01/13 07:53:41;;;;;;;11.80;3.47;;;;;;;8.66;100.00;100394.56;5304373;28;20191;-77
2023/01/13 07:56:12;;;;;;;12.48;3.30;;;;;;;8.73;100.00;100409.56;5307547;28;20031;-74
2023/01/13 07:58:49;;;;;;;12.40;2.70;;;;;;;8.68;100.00;100421.38;5305909;28;20023;-77
2023/01/13 08:01:21;;;;;;;15.75;4.50;;;;;;;8.68;100.00;100416.97;5303901;28;20032;-77
2023/01/13 08:03:54;;;;;;;14.00;3.38;;;;;;;8.75;100.00;100417.28;5306996;28;20020;-77
2023/01/13 08:06:26;;;;;;;18.48;3.75;;;;;;;8.67;100.00;100417.09;5302509;28;20023;-75
2023/01/13 08:08:57;;;;;;;18.98;3.72;;;;;;;8.64;100.00;100410.38;5302942;28;20089;-74
2023/01/13 08:11:28;;;;;;;19.13;4.00;;;;;;;8.61;100.00;100413.22;5294851;28;20036;-74
2023/01/13 08:14:00;;;;;;;15.77;3.67;;;;;;;8.70;100.00;100422.06;5297867;28;20024;-77
2023/01/13 08:16:33;;;;;;;13.60;3.60;;;;;;;8.66;100.00;100413.66;5297767;28;20044;-74
2023/01/13 08:19:05;;;;;;;14.00;3.28;;;;;;;8.62;100.00;100421.88;5305020;28;20024;-77
2023/01/13 08:21:36;;;;;;;18.50;3.80;;;;;;;8.47;100.00;100405.69;5301793;28;20511;-77
2023/01/13 08:24:09;;;;;;;14.32;3.13;;;;;;;8.59;100.00;100415.13;5303750;28;20020;-77
2023/01/13 08:26:40;;;;;;;12.93;3.33;;;;;;;8.55;100.00;100412.91;5297511;28;20032;-77
2023/01/13 08:29:11;;;;;;;14.90;3.58;;;;;;;8.54;100.00;100422.53;5305390;28;20087;-75
2023/01/13 08:31:43;;;;;;;18.55;3.95;;;;;;;8.60;100.00;100423.78;5307147;28;20028;-77
2023/01/13 08:34:14;;;;;;;14.85;3.42;;;;;;;8.52;100.00;100407.00;5303238;28;20479;-78
2023/01/13 08:36:48;;;;;;;19.92;4.18;;;;;;;8.73;100.00;100421.81;5301757;28;20511;-77
2023/01/13 08:39:19;;;;;;;23.00;4.70;;;;;;;8.69;100.00;100410.78;5309083;28;20028;-75
2023/01/13 08:41:57;;;;;;;16.38;3.33;;;;;;;8.66;100.00;100416.25;5305576;28;21135;-76
2023/01/13 08:44:30;;;;;;;16.98;3.70;;;;;;;8.77;100.00;100416.19;5284842;28;20015;-76
2023/01/13 08:47:03;;;;;;;18.77;4.97;;;;;;;8.73;100.00;100414.81;5301293;28;20031;-77
2023/01/13 08:49:34;;;;;;;15.02;4.05;;;;;;;8.88;100.00;100427.53;5303193;28;20069;-77
2023/01/13 08:52:05;;;;;;;17.65;4.88;;;;;;;8.95;100.00;100421.66;5296295;28;20024;-76
2023/01/13 08:54:38;;;;;;;15.10;3.35;;;;;;;8.97;100.00;100424.97;5296493;28;20035;-77
2023/01/13 08:57:09;;;;;;;15.47;3.23;;;;;;;9.12;100.00;100448.13;5307067;28;20049;-77
2023/01/13 08:59:42;;;;;;;15.82;3.75;;;;;;;9.12;100.00;100432.47;5300287;28;20564;-77
2023/01/13 09:02:16;;;;;;;21.25;3.88;;;;;;;9.14;100.00;100426.16;5307976;28;20056;-75
2023/01/13 09:04:48;;;;;;;23.95;5.28;;;;;;;9.11;100.00;100431.63;5307392;28;20051;-74
2023/01/13 09:07:20;;;;;;;16.65;4.32;;;;;;;9.16;100.00;100445.13;5310693;28;20062;-74
2023/01/13 09:09:51;;;;;;;15.85;3.95;;;;;;;9.23;100.00;100437.59;5304585;28;20030;-75
2023/01/13 09:15:26;;;;;;;;;;;;;;;9.70;100.00;100432.66;5260420;28;20076;-77
2023/01/13 09:17:57;;;;;;;21.37;4.23;;;;;;;9.38;100.00;100433.66;5299875;28;20032;-74
2023/01/13 09:20:29;;;;;;;20.45;4.43;;;;;;;9.31;100.00;100435.16;5300856;28;20285;-80
2023/01/13 09:23:00;;;;;;;22.80;4.40;;;;;;;9.40;100.00;100451.84;5300599;28;20028;-74
2023/01/13 09:25:34;;;;;;;15.75;4.70;;;;;;;9.40;100.00;100455.28;5301765;28;20059;-74
2023/01/13 09:28:07;;;;;;;18.38;3.97;;;;;;;9.60;100.00;100457.97;5297877;28;20117;-76
2023/01/13 09:30:38;;;;;;;22.92;4.80;;;;;;;9.59;100.00;100477.25;5306961;28;20038;-75
2023/01/13 09:36:00;;;;;;;19.23;4.15;;;;;;;9.70;100.00;100479.75;5304547;28;20548;-75
2023/01/13 09:38:31;;;;;;;23.30;4.35;;;;;;;9.65;100.00;100477.50;5288798;28;20115;-77
2023/01/13 09:43:52;;;;;;;18.83;4.32;;;;;;;9.66;100.00;100494.03;5306649;28;20097;-75
2023/01/13 09:43:58;;;;;;;18.95;4.45;;;;;;;9.67;100.00;100491.31;5303541;28;20032;-74
2023/01/13 09:46:43;;;;;;;22.60;5.18;;;;;;;9.73;100.00;100488.13;5306882;28;20020;-78
2023/01/13 09:49:36;;;;;;;20.52;4.70;;;;;;;9.87;100.00;100492.19;5306630;28;20024;-74
2023/01/13 09:52:23;;;;;;;22.23;4.43;;;;;;;9.85;100.00;100485.41;5287043;28;20310;-76
2023/01/13 09:55:13;;;;;;;20.10;4.32;;;;;;;9.79;100.00;100505.09;5306138;28;20020;-75
2023/01/13 09:57:44;;;;;;;18.17;4.78;;;;;;;9.74;100.00;100504.69;5307178;28;20063;-75
2023/01/13 10:00:24;;;;;;;23.80;5.10;;;;;;;9.77;100.00;100507.00;5308645;28;20066;-74
2023/01/13 10:03:14;;;;;;;16.67;3.88;;;;;;;9.78;100.00;100500.84;5313633;28;20038;-75
2023/01/13 10:06:03;;;;;;;18.92;4.18;;;;;;;9.79;100.00;100499.88;5302745;28;20036;-76
2023/01/13 10:08:38;;;;;;;19.52;4.53;;;;;;;9.72;100.00;100503.97;5293285;28;20043;-76
2023/01/13 10:14:16;;;;;;;14.30;4.13;;;;;;;9.91;100.00;100488.31;5310006;28;20027;-75
2023/01/13 10:16:54;;;;;;;16.05;4.65;;;;;;;10.10;100.00;100518.13;5304886;28;20070;-75
2023/01/13 10:19:42;;;;;;;18.45;4.18;;;;;;;10.05;100.00;100508.06;5305528;28;20016;-77
2023/01/13 10:22:23;;;;;;;19.92;4.05;;;;;;;10.22;100.00;100510.00;5308552;28;20028;-75
2023/01/13 10:25:24;;;;;;;20.70;4.57;;;;;;;10.16;100.00;100507.94;5313073;28;20028;-75
2023/01/13 10:28:03;;;;;;;18.52;4.53;;;;;;;10.10;100.00;100515.50;5305713;28;20612;-77
2023/01/13 10:30:38;;;;;;;19.50;4.90;;;;;;;9.93;100.00;100525.66;5293486;28;20026;-76
2023/01/13 10:33:16;;;;;;;23.73;4.53;;;;;;;9.89;100.00;100521.66;5308916;28;20028;-77
2023/01/13 10:36:02;;;;;;;21.33;5.10;;;;;;;9.88;100.00;100535.69;5293815;28;20024;-76
2023/01/13 10:38:33;;;;;;;21.95;3.65;;;;;;;9.63;100.00;100541.41;5302679;28;20019;-76
2023/01/13 10:41:17;;;;;;;16.90;4.47;;;;;;;9.73;100.00;100563.16;5302616;28;20028;-76
2023/01/13 10:43:51;;;;;;;18.65;4.18;;;;;;;9.57;100.00;100560.22;5300251;28;20273;-75
2023/01/13 10:46:23;;;;;;;19.00;4.50;;;;;;;9.48;100.00;100562.66;5310685;28;20020;-76
2023/01/13 10:49:02;;;;;;;19.95;4.95;;;;;;;9.39;100.00;100563.41;5307288;28;20099;-75
2023/01/13 10:51:37;;;;;;;17.02;4.45;;;;;;;9.38;100.00;100559.16;5305551;28;20038;-75
2023/01/13 10:54:11;;;;;;;21.00;4.55;;;;;;;9.38;100.00;100563.56;5302261;28;20112;-75
2023/01/13 10:56:43;;;;;;;17.65;4.57;;;;;;;9.35;100.00;100561.19;5297857;28;20996;-75
2023/01/13 10:59:25;;;;;;;19.80;4.15;;;;;;;9.36;100.00;100557.66;5286378;28;20028;-76
2023/01/13 11:02:12;;;;;;;24.02;5.43;;;;;;;9.41;100.00;100558.91;5288295;28;20042;-77
2023/01/13 11:05:01;;;;;;;17.73;4.97;;;;;;;9.40;100.00;100561.66;5301121;28;20185;-77
2023/01/13 11:07:37;;;;;;;22.10;4.10;;;;;;;9.32;100.00;100564.91;5302234;28;20110;-76
2023/01/13 11:10:08;;;;;;;21.30;4.95;;;;;;;9.41;100.00;100556.28;5303435;28;20027;-75
2023/01/13 11:12:51;;;;;;;22.70;4.45;;;;;;;9.55;100.00;100556.91;5302126;28;20035;-77
2023/01/13 11:15:30;;;;;;;;;;;;;;;10.02;100.00;100568.53;5302079;28;20414;-76
2023/01/13 11:18:14;;;;;;;25.00;5.53;;;;;;;9.69;100.00;100564.41;5301369;28;20010;-76
2023/01/13 11:20:48;;;;;;;19.10;4.75;;;;;;;9.59;100.00;100571.41;5300695;28;20024;-75
2023/01/13 11:23:30;;;;;;;17.88;3.88;;;;;;;9.69;100.00;100567.84;5304380;28;20512;-77
2023/01/13 11:26:13;;;;;;;19.85;4.70;;;;;;;9.77;100.00;100563.75;5308648;28;20032;-75
2023/01/13 11:29:09;;;;;;;19.20;4.07;;;;;;;9.96;100.00;100587.34;5302976;28;20043;-77
2023/01/13 11:31:47;;;;;;;21.77;3.95;;;;;;;9.76;100.00;100576.00;5289202;28;20653;-76
2023/01/13 11:34:40;;;;;;;19.30;4.40;;;;;;;10.08;100.00;100580.25;5305013;28;20046;-79
2023/01/13 11:37:21;;;;;;;20.23;4.53;;;;;;;9.92;100.00;100585.97;5304049;28;20104;-75
2023/01/13 11:40:04;;;;;;;14.90;4.05;;;;;;;9.96;100.00;100589.97;5304965;28;20024;-75
2023/01/13 11:43:00;;;;;;;20.17;4.13;;;;;;;9.97;100.00;100591.66;5305689;28;20015;-76
2023/01/13 11:45:41;;;;;;;16.83;4.00;;;;;;;10.04;100.00;100598.03;5302136;28;20041;-75
2023/01/13 11:48:16;;;;;;;18.20;4.03;;;;;;;9.80;100.00;100581.78;5306151;28;20472;-76
2023/01/13 11:51:01;;;;;;;15.43;3.47;;;;;;;10.09;100.00;100600.22;5282947;28;20031;-75
2023/01/13 11:53:35;;;;;;;18.50;4.32;;;;;;;9.98;100.00;100596.75;5306577;28;20020;-76
2023/01/13 11:56:26;;;;;;;18.65;4.18;;;;;;;10.17;100.00;100597.78;5302528;28;20035;-79
2023/01/13 11:59:34;;;;;;;13.73;3.92;;;;;;;10.12;100.00;100606.03;5296305;28;20392;-76
2023/01/13 12:02:38;;;;;;;17.38;4.25;;;;;;;10.13;100.00;100602.44;5294401;28;20863;-76
2023/01/13 12:05:39;;;;;;;16.23;4.07;;;;;;;10.31;100.00;100609.69;5286978;28;20599;-76
2023/01/13 12:08:22;;;;;;;20.60;4.15;;;;;;;10.14;100.00;100609.31;5296273;28;20452;-77
2023/01/13 12:11:06;;;;;;;11.65;3.50;;;;;;;10.10;100.00;100601.88;5306702;28;20043;-76
2023/01/13 12:13:46;;;;;;;13.68;3.72;;;;;;;10.22;100.00;100619.13;5303756;28;20047;-77
2023/01/13 12:16:25;;;;;;;16.20;3.65;;;;;;;10.17;100.00;100611.69;5301647;28;21111;-75
2023/01/13 12:19:15;;;;;;;13.77;4.05;;;;;;;10.21;100.00;100620.09;5304593;28;20027;-77
2023/01/13 12:21:55;;;;;;;21.83;3.92;;;;;;;10.27;100.00;100622.22;5304319;28;20023;-76
2023/01/13 12:24:31;;;;;;;16.45;4.05;;;;;;;10.19;100.00;100622.00;5300211;28;20032;-77
2023/01/13 12:27:12;;;;;;;17.50;3.67;;;;;;;10.21;100.00;100625.34;5305144;28;20264;-78
2023/01/13 12:29:46;;;;;;;12.10;3.03;;;;;;;10.06;100.00;100600.50;5297735;28;20067;-77
2023/01/13 12:32:23;;;;;;;14.18;3.53;;;;;;;10.16;100.00;100623.13;5299309;28;20038;-77
2023/01/13 12:35:04;;;;;;;15.52;3.63;;;;;;;10.14;100.00;100630.28;5303313;28;20016;-77
2023/01/13 12:37:48;;;;;;;11.88;3.22;;;;;;;10.29;100.00;100635.19;5300944;28;20111;-77